Time;durP1;ratioP1;P1;durP2;ratioP2;P2;SDS_P1;SDS_P2;PMS_P1;PMS_P2;Temp;Humidity;BMP_temperature;BMP_pressure;BME280_temperature;BME280_humidity;BME280_pressure;Samples;Min_cycle;Max_cycle;Signal;HPM_P1;HPM_P2
2021/01/08 00:00:48;;;;;;;4.28;3.88;;;4.20;99.90;;;;;;5012257;28;20030;-78
2021/01/08 00:03:13;;;;;;;4.43;4.03;;;4.20;99.90;;;;;;5012268;28;20105;-77
2021/01/08 00:05:39;;;;;;;3.97;3.58;;;4.20;99.90;;;;;;5012196;28;20102;-77
2021/01/08 00:08:05;;;;;;;5.65;4.60;;;4.20;99.90;;;;;;5012300;28;20438;-77
2021/01/08 00:10:31;;;;;;;5.63;4.90;;;4.20;99.90;;;;;;5012464;28;20528;-77
2021/01/08 00:12:57;;;;;;;5.20;4.70;;;4.30;99.90;;;;;;5012291;28;20133;-78
2021/01/08 00:15:23;;;;;;;4.57;4.18;;;4.30;99.90;;;;;;5012433;28;20029;-77
2021/01/08 00:17:49;;;;;;;6.45;5.03;;;4.30;99.90;;;;;;5012171;28;20053;-78
2021/01/08 00:20:14;;;;;;;6.82;5.03;;;4.30;99.90;;;;;;5012321;28;20033;-78
2021/01/08 00:22:40;;;;;;;6.93;5.55;;;4.30;99.90;;;;;;5012086;28;20380;-78
2021/01/08 00:25:06;;;;;;;7.28;6.05;;;4.30;99.90;;;;;;5012160;28;20030;-78
2021/01/08 00:27:32;;;;;;;7.57;6.25;;;4.30;99.90;;;;;;5012009;28;20050;-78
2021/01/08 00:29:57;;;;;;;6.38;5.68;;;4.30;99.90;;;;;;5011921;28;20097;-78
2021/01/08 00:32:23;;;;;;;8.90;7.20;;;4.40;99.90;;;;;;4994629;28;20037;-77
2021/01/08 00:34:49;;;;;;;8.82;6.82;;;4.40;99.90;;;;;;5011903;28;20729;-77
2021/01/08 00:37:15;;;;;;;9.35;7.45;;;4.40;99.90;;;;;;5012137;28;20061;-78
2021/01/08 00:39:41;;;;;;;9.07;7.72;;;4.40;99.90;;;;;;5012018;28;20098;-77
2021/01/08 00:42:08;;;;;;;10.20;8.10;;;4.40;99.90;;;;;;4994274;28;20037;-77
2021/01/08 00:44:34;;;;;;;10.57;8.43;;;4.40;99.90;;;;;;5011933;28;20022;-77
2021/01/08 00:47:00;;;;;;;9.98;7.95;;;4.40;99.90;;;;;;4994157;28;20081;-77
2021/01/08 00:49:25;;;;;;;9.30;7.70;;;4.40;99.90;;;;;;5011597;28;20026;-77
2021/01/08 00:51:53;;;;;;;8.57;6.85;;;4.50;99.90;;;;;;5011659;28;20014;-77
2021/01/08 00:54:18;;;;;;;9.10;6.93;;;4.50;99.90;;;;;;5011780;28;20018;-77
2021/01/08 00:56:46;;;;;;;8.38;6.70;;;4.50;99.90;;;;;;5011886;28;20029;-77
2021/01/08 00:59:12;;;;;;;8.57;7.20;;;4.50;99.90;;;;;;5015001;28;20538;-76
2021/01/08 01:01:38;;;;;;;8.52;6.53;;;4.50;99.90;;;;;;5015067;28;20034;-77
2021/01/08 01:04:04;;;;;;;7.53;6.18;;;4.50;99.90;;;;;;5015095;28;20164;-77
2021/01/08 01:06:31;;;;;;;8.00;6.80;;;4.50;99.90;;;;;;5015012;28;20100;-77
2021/01/08 01:08:57;;;;;;;7.30;5.90;;;4.50;99.90;;;;;;5014823;28;20423;-77
2021/01/08 01:11:26;;;;;;;7.35;6.30;;;4.50;99.90;;;;;;4997376;28;20025;-76
2021/01/08 01:13:55;;;;;;;7.10;6.15;;;4.50;99.90;;;;;;4997417;28;20046;-77
2021/01/08 01:16:22;;;;;;;5.93;5.32;;;4.50;99.90;;;;;;5015022;28;20018;-76
2021/01/08 01:18:48;;;;;;;6.60;5.25;;;4.50;99.90;;;;;;5014846;28;20052;-76
2021/01/08 01:21:15;;;;;;;6.55;5.65;;;4.50;99.90;;;;;;5014726;28;20022;-77
2021/01/08 01:23:41;;;;;;;7.70;5.95;;;4.50;99.90;;;;;;5014822;28;20022;-77
2021/01/08 01:26:07;;;;;;;6.57;5.45;;;4.50;99.90;;;;;;5014774;28;20093;-77
2021/01/08 01:28:34;;;;;;;6.43;5.30;;;4.50;99.90;;;;;;4997174;28;20021;-77
2021/01/08 01:31:01;;;;;;;7.22;5.95;;;4.50;99.90;;;;;;5014656;28;20034;-77
2021/01/08 01:33:27;;;;;;;7.88;6.25;;;4.50;99.90;;;;;;5014765;28;20503;-77
2021/01/08 01:35:53;;;;;;;7.63;6.10;;;4.50;99.90;;;;;;5014761;28;20053;-77
2021/01/08 01:38:20;;;;;;;8.25;6.38;;;4.50;99.90;;;;;;5014584;28;20022;-77
2021/01/08 01:40:46;;;;;;;7.97;6.40;;;4.50;99.90;;;;;;4996927;28;20120;-77
2021/01/08 01:43:11;;;;;;;7.85;6.22;;;4.50;99.90;;;;;;5014448;28;20109;-77
2021/01/08 01:45:37;;;;;;;10.43;7.47;;;4.50;99.90;;;;;;4996662;28;20488;-78
2021/01/08 01:48:03;;;;;;;7.78;6.20;;;4.50;99.90;;;;;;5014213;28;20105;-77
2021/01/08 01:50:30;;;;;;;8.23;6.28;;;4.50;99.90;;;;;;5014153;28;20476;-77
2021/01/08 01:52:56;;;;;;;7.68;5.97;;;4.50;99.90;;;;;;5014537;28;20022;-77
2021/01/08 01:55:22;;;;;;;10.52;8.15;;;4.50;99.90;;;;;;5014227;28;20033;-76
2021/01/08 01:57:52;;;;;;;7.93;6.55;;;4.50;99.90;;;;;;4996778;28;20396;-77
2021/01/08 02:00:18;;;;;;;7.00;5.95;;;4.50;99.90;;;;;;4996541;28;20025;-77
2021/01/08 02:02:53;;;;;;;7.80;6.65;;;4.50;99.90;;;;;;4996767;28;20026;-77
2021/01/08 02:05:20;;;;;;;7.20;6.10;;;4.40;99.90;;;;;;5014190;28;20029;-77
2021/01/08 02:08:07;;;;;;;8.35;6.63;;;4.40;99.90;;;;;;5014013;28;20423;-77
2021/01/08 02:10:43;;;;;;;7.65;6.20;;;4.50;99.90;;;;;;5012923;28;20692;-78
2021/01/08 02:13:15;;;;;;;9.35;6.53;;;4.50;99.90;;;;;;5013741;28;20046;-78
2021/01/08 02:15:41;;;;;;;10.73;6.63;;;4.50;99.90;;;;;;5013996;28;20022;-78
2021/01/08 02:18:07;;;;;;;7.05;5.97;;;4.40;99.90;;;;;;5013821;28;20128;-78
2021/01/08 02:20:33;;;;;;;7.32;6.45;;;4.40;99.90;;;;;;5014106;28;20025;-78
2021/01/08 02:23:14;;;;;;;8.68;6.45;;;4.40;99.90;;;;;;5014042;28;20717;-78
2021/01/08 02:25:40;;;;;;;8.55;6.82;;;4.40;99.90;;;;;;5013779;28;20035;-77
2021/01/08 02:28:19;;;;;;;10.05;7.10;;;4.40;99.90;;;;;;5013834;28;20129;-78
2021/01/08 02:30:46;;;;;;;7.78;6.93;;;4.40;99.90;;;;;;4996181;28;20022;-77
2021/01/08 02:33:14;;;;;;;9.10;7.22;;;4.40;99.90;;;;;;5013668;28;20077;-77
2021/01/08 02:35:41;;;;;;;11.73;6.88;;;4.40;99.90;;;;;;5013566;28;20417;-78
2021/01/08 02:38:08;;;;;;;9.40;7.07;;;4.40;99.90;;;;;;5013284;28;20014;-78
2021/01/08 02:40:34;;;;;;;8.77;6.82;;;4.40;99.90;;;;;;5013495;28;20030;-78
2021/01/08 02:43:06;;;;;;;7.65;5.80;;;4.40;99.90;;;;;;5013531;28;20052;-78
2021/01/08 02:45:32;;;;;;;10.20;7.15;;;4.40;99.90;;;;;;4995716;28;20022;-77
2021/01/08 02:47:59;;;;;;;8.63;6.50;;;4.40;99.90;;;;;;5013410;28;20065;-76
2021/01/08 02:50:25;;;;;;;9.68;7.13;;;4.40;99.90;;;;;;5013375;28;20461;-77
2021/01/08 02:52:59;;;;;;;9.70;6.88;;;4.40;99.90;;;;;;5013550;28;20026;-77
2021/01/08 02:55:31;;;;;;;9.88;6.85;;;4.30;99.90;;;;;;5013423;28;20029;-77
2021/01/08 02:57:59;;;;;;;10.68;7.70;;;4.30;99.90;;;;;;5013395;28;20101;-77
2021/01/08 03:00:28;;;;;;;13.27;7.78;;;4.30;99.90;;;;;;4995980;28;20033;-77
2021/01/08 03:02:55;;;;;;;10.73;7.90;;;4.40;99.90;;;;;;5013481;28;20036;-78
2021/01/08 03:05:22;;;;;;;12.75;8.30;;;4.30;99.90;;;;;;5013456;28;20468;-77
2021/01/08 03:07:48;;;;;;;12.73;8.90;;;4.30;99.90;;;;;;5013232;28;20026;-76
2021/01/08 03:10:15;;;;;;;13.38;8.90;;;4.30;99.90;;;;;;5013286;28;20096;-77
2021/01/08 03:12:47;;;;;;;13.23;8.65;;;4.30;99.90;;;;;;4995679;28;20117;-77
2021/01/08 03:15:13;;;;;;;;;;;4.30;99.90;;;;;;4995777;28;20384;-77
2021/01/08 03:17:38;;;;;;;14.02;9.32;;;4.30;99.90;;;;;;5013004;28;19912;-77
2021/01/08 03:20:05;;;;;;;14.60;8.73;;;4.30;99.90;;;;;;5012586;28;20101;-77
2021/01/08 03:22:30;;;;;;;16.10;9.90;;;4.30;99.90;;;;;;5012953;28;20109;-77
2021/01/08 03:24:56;;;;;;;15.80;9.45;;;4.30;99.90;;;;;;5013091;28;20108;-77
2021/01/08 03:27:25;;;;;;;15.63;9.25;;;4.30;99.90;;;;;;5013012;28;20030;-76
2021/01/08 03:29:51;;;;;;;17.20;10.77;;;4.30;99.90;;;;;;4995628;28;20507;-78
2021/01/08 03:32:17;;;;;;;16.08;10.50;;;4.30;99.90;;;;;;5013257;28;20022;-77
2021/01/08 03:34:42;;;;;;;17.13;11.13;;;4.30;99.90;;;;;;5012657;28;20381;-77
2021/01/08 03:37:08;;;;;;;16.63;11.07;;;4.30;99.90;;;;;;5012804;28;20388;-77
2021/01/08 03:39:34;;;;;;;18.13;11.90;;;4.20;99.90;;;;;;4995142;28;20026;-77
2021/01/08 03:41:59;;;;;;;16.63;11.07;;;4.30;99.90;;;;;;4994913;28;20065;-77
2021/01/08 03:44:25;;;;;;;21.55;12.55;;;4.30;99.90;;;;;;5012509;28;20029;-77
2021/01/08 03:46:51;;;;;;;22.55;12.80;;;4.30;99.90;;;;;;4994714;28;20062;-77
2021/01/08 03:49:16;;;;;;;19.25;12.07;;;4.30;99.90;;;;;;4994761;28;20030;-77
2021/01/08 03:51:42;;;;;;;22.02;12.43;;;4.30;99.90;;;;;;5012380;28;20022;-77
2021/01/08 03:54:08;;;;;;;21.42;12.38;;;4.30;99.90;;;;;;5012317;28;20026;-77
2021/01/08 03:56:33;;;;;;;21.70;12.85;;;4.30;99.90;;;;;;5012407;28;20030;-77
2021/01/08 03:58:59;;;;;;;21.98;13.57;;;4.30;99.90;;;;;;5012419;28;20430;-77
2021/01/08 04:01:25;;;;;;;24.20;13.70;;;4.30;99.90;;;;;;5012344;28;20029;-77
2021/01/08 04:03:50;;;;;;;24.50;13.95;;;4.30;99.90;;;;;;4994684;28;20022;-76
2021/01/08 04:06:16;;;;;;;25.38;14.40;;;4.30;99.90;;;;;;5012076;28;20026;-76
2021/01/08 04:08:42;;;;;;;23.13;13.52;;;4.30;99.90;;;;;;5012296;28;20468;-77
2021/01/08 04:11:07;;;;;;;26.00;14.93;;;4.30;99.90;;;;;;5012700;28;20043;-77
2021/01/08 04:13:33;;;;;;;27.08;16.20;;;4.30;99.90;;;;;;5011818;28;20116;-77
2021/01/08 04:15:59;;;;;;;25.95;15.63;;;4.30;99.90;;;;;;5012162;28;20022;-76
2021/01/08 04:18:24;;;;;;;24.45;15.60;;;4.30;99.90;;;;;;5012079;28;20117;-76
2021/01/08 04:20:50;;;;;;;27.15;16.60;;;4.30;99.90;;;;;;5011930;28;20022;-76
2021/01/08 04:23:16;;;;;;;28.15;16.88;;;4.30;99.90;;;;;;5012114;28;20105;-78
2021/01/08 04:25:42;;;;;;;31.30;17.00;;;4.30;99.90;;;;;;5011986;28;20555;-77
2021/01/08 04:28:07;;;;;;;27.10;16.35;;;4.30;99.90;;;;;;4994326;28;20022;-77
2021/01/08 04:30:33;;;;;;;29.42;16.88;;;4.20;99.90;;;;;;5012011;28;20456;-77
2021/01/08 04:32:59;;;;;;;33.03;16.02;;;4.20;99.90;;;;;;5013920;28;20105;-78
2021/01/08 04:35:24;;;;;;;28.92;16.00;;;4.20;99.90;;;;;;5015660;28;20065;-77
2021/01/08 04:37:50;;;;;;;31.02;16.92;;;4.20;99.90;;;;;;5015816;28;20032;-78
2021/01/08 04:40:16;;;;;;;27.90;16.52;;;4.20;99.90;;;;;;4998206;28;20376;-77
2021/01/08 04:42:42;;;;;;;32.83;17.42;;;4.20;99.90;;;;;;5015487;28;20065;-78
2021/01/08 04:45:08;;;;;;;27.85;15.88;;;4.20;99.90;;;;;;4997672;28;20072;-77
2021/01/08 04:47:35;;;;;;;31.63;17.13;;;4.30;99.90;;;;;;5015416;28;20041;-77
2021/01/08 04:50:02;;;;;;;30.55;16.23;;;4.20;99.90;;;;;;5015094;28;20032;-77
2021/01/08 04:52:30;;;;;;;32.53;17.80;;;4.20;99.90;;;;;;5015201;28;20112;-78
2021/01/08 04:54:56;;;;;;;30.38;16.77;;;4.20;99.90;;;;;;5015571;28;20029;-76
2021/01/08 04:57:24;;;;;;;31.50;17.15;;;4.20;99.90;;;;;;4997630;28;20089;-77
2021/01/08 04:59:50;;;;;;;28.42;16.60;;;4.20;99.90;;;;;;5014730;28;20068;-77
2021/01/08 05:02:16;;;;;;;27.83;16.08;;;4.30;99.90;;;;;;4997585;28;20388;-77
2021/01/08 05:04:43;;;;;;;28.90;16.55;;;4.20;99.90;;;;;;5014929;28;20034;-77
2021/01/08 05:07:08;;;;;;;29.98;17.00;;;4.30;99.90;;;;;;5014852;28;20030;-77
2021/01/08 05:09:34;;;;;;;29.50;16.27;;;4.30;99.90;;;;;;5014731;28;20852;-77
2021/01/08 05:12:00;;;;;;;26.50;14.77;;;4.20;99.90;;;;;;5014560;28;20060;-77
2021/01/08 05:14:27;;;;;;;25.95;14.25;;;4.30;99.90;;;;;;5014730;28;20429;-77
2021/01/08 05:16:55;;;;;;;38.85;14.40;;;4.30;99.90;;;;;;4997239;28;20030;-77
2021/01/08 05:19:23;;;;;;;25.02;13.40;;;4.20;99.90;;;;;;5014637;28;20487;-77
2021/01/08 05:21:51;;;;;;;25.05;14.32;;;4.20;99.90;;;;;;5014966;28;20781;-77
2021/01/08 05:24:17;;;;;;;27.67;15.52;;;4.20;99.90;;;;;;5014618;28;20098;-77
2021/01/08 05:26:43;;;;;;;29.50;14.32;;;4.20;99.90;;;;;;4996775;28;20053;-78
2021/01/08 05:29:10;;;;;;;24.17;14.02;;;4.20;99.90;;;;;;5014319;28;20046;-77
2021/01/08 05:31:36;;;;;;;27.40;14.85;;;4.20;99.90;;;;;;5014334;28;20209;-77
2021/01/08 05:34:03;;;;;;;25.63;15.70;;;4.20;99.90;;;;;;4996868;28;20134;-77
2021/01/08 05:36:31;;;;;;;28.38;15.77;;;4.20;99.90;;;;;;5014499;28;20025;-77
2021/01/08 05:38:59;;;;;;;28.27;16.13;;;4.20;99.90;;;;;;4996860;28;20026;-77
2021/01/08 05:41:29;;;;;;;29.00;15.55;;;4.20;99.90;;;;;;5014425;28;20455;-78
2021/01/08 05:43:56;;;;;;;26.85;15.75;;;4.20;99.90;;;;;;4996764;28;20564;-78
2021/01/08 05:46:40;;;;;;;36.60;17.70;;;4.20;99.90;;;;;;5014285;28;20037;-77
2021/01/08 05:49:08;;;;;;;28.05;16.08;;;4.20;99.90;;;;;;5014288;28;20068;-76
2021/01/08 05:51:38;;;;;;;28.08;16.17;;;4.20;99.90;;;;;;4996378;28;20088;-78
2021/01/08 05:54:05;;;;;;;29.45;16.50;;;4.20;99.90;;;;;;5014325;28;20408;-78
2021/01/08 05:56:35;;;;;;;30.00;16.55;;;4.20;99.90;;;;;;5014816;28;20468;-77
2021/01/08 05:59:07;;;;;;;30.27;16.48;;;4.20;99.90;;;;;;5014361;28;20022;-78
2021/01/08 06:01:33;;;;;;;30.98;16.45;;;4.20;99.90;;;;;;5014255;28;20421;-77
2021/01/08 06:04:03;;;;;;;30.10;16.65;;;4.20;99.90;;;;;;5014233;28;20018;-77
2021/01/08 06:06:44;;;;;;;28.30;15.95;;;4.20;99.90;;;;;;5013739;28;20033;-77
2021/01/08 06:09:12;;;;;;;27.58;15.40;;;4.20;99.90;;;;;;5013887;28;20080;-76
2021/01/08 06:11:43;;;;;;;29.98;16.75;;;4.20;99.90;;;;;;5014309;28;20484;-77
2021/01/08 06:14:11;;;;;;;28.05;15.70;;;4.20;99.90;;;;;;4996194;28;20380;-78
2021/01/08 06:16:39;;;;;;;31.95;17.02;;;4.20;99.90;;;;;;5014166;28;20026;-78
2021/01/08 06:19:05;;;;;;;32.13;16.92;;;4.20;99.90;;;;;;5013847;28;20029;-77
2021/01/08 06:21:36;;;;;;;31.45;16.65;;;4.20;99.90;;;;;;4995644;28;20049;-78
2021/01/08 06:24:02;;;;;;;31.33;17.55;;;4.20;99.90;;;;;;5013550;28;20018;-78
2021/01/08 06:26:30;;;;;;;31.52;16.88;;;4.20;99.90;;;;;;5013565;28;20045;-77
2021/01/08 06:29:00;;;;;;;31.65;15.95;;;4.20;99.90;;;;;;5014028;28;20030;-77
2021/01/08 06:31:45;;;;;;;25.95;14.82;;;4.20;99.90;;;;;;5013834;28;20018;-78
2021/01/08 06:34:10;;;;;;;27.73;14.90;;;4.30;99.90;;;;;;5013419;28;20062;-77
2021/01/08 06:36:45;;;;;;;28.05;15.20;;;4.30;99.90;;;;;;5013112;28;20032;-77
2021/01/08 06:39:21;;;;;;;27.33;14.93;;;4.30;99.90;;;;;;5013137;28;20026;-77
2021/01/08 06:41:52;;;;;;;26.33;14.77;;;4.30;99.90;;;;;;5012607;28;20038;-77
2021/01/08 06:44:25;;;;;;;32.58;16.38;;;4.30;99.90;;;;;;5012730;28;20026;-78
2021/01/08 06:46:52;;;;;;;30.45;15.95;;;4.30;99.90;;;;;;4994760;28;20108;-78
2021/01/08 06:49:19;;;;;;;27.30;15.50;;;4.40;99.90;;;;;;5012829;28;20081;-77
2021/01/08 06:51:46;;;;;;;33.30;14.93;;;4.40;99.90;;;;;;5012906;28;20066;-79
2021/01/08 06:54:13;;;;;;;26.48;15.23;;;4.40;99.90;;;;;;5012495;28;20096;-78
2021/01/08 06:56:42;;;;;;;28.33;15.45;;;4.50;99.90;;;;;;5012416;28;20048;-78
2021/01/08 06:59:20;;;;;;;29.95;16.25;;;4.50;99.90;;;;;;5012818;28;20088;-77
2021/01/08 07:02:04;;;;;;;31.35;16.20;;;4.50;99.90;;;;;;5012309;28;20022;-76
2021/01/08 07:04:31;;;;;;;24.05;13.82;;;4.60;99.90;;;;;;4994728;28;20440;-76
2021/01/08 07:07:02;;;;;;;26.08;14.30;;;4.60;99.90;;;;;;4994713;28;20026;-76
2021/01/08 07:09:38;;;;;;;23.77;13.25;;;4.60;99.90;;;;;;5012057;28;20105;-76
2021/01/08 07:12:06;;;;;;;26.25;13.70;;;4.60;99.90;;;;;;5011099;28;20550;-77
2021/01/08 07:14:35;;;;;;;24.65;12.52;;;4.60;99.90;;;;;;5011680;28;20053;-76
2021/01/08 07:17:05;;;;;;;23.88;13.73;;;4.60;99.90;;;;;;4994297;28;20026;-76
2021/01/08 07:19:31;;;;;;;22.50;13.18;;;4.60;99.90;;;;;;5012466;28;20033;-76
2021/01/08 07:22:00;;;;;;;20.38;12.02;;;4.60;99.90;;;;;;5012116;28;20021;-76
2021/01/08 07:24:29;;;;;;;19.77;12.25;;;4.60;99.90;;;;;;5012007;28;20484;-76
2021/01/08 07:27:12;;;;;;;21.02;12.48;;;4.60;99.90;;;;;;5011726;28;20112;-76
2021/01/08 07:29:38;;;;;;;23.25;11.68;;;4.60;99.90;;;;;;5011966;28;20033;-76
2021/01/08 07:32:05;;;;;;;24.63;12.43;;;4.70;99.90;;;;;;5011766;28;20044;-77
2021/01/08 07:34:35;;;;;;;18.73;11.57;;;4.70;99.90;;;;;;5010619;28;20017;-77
2021/01/08 07:37:02;;;;;;;19.30;11.63;;;4.70;99.90;;;;;;5010806;28;20022;-76
2021/01/08 07:39:42;;;;;;;19.65;10.75;;;4.60;99.90;;;;;;5011265;28;20476;-77
2021/01/08 07:42:30;;;;;;;19.42;11.43;;;4.60;99.90;;;;;;5011690;28;20074;-77
2021/01/08 07:44:56;;;;;;;17.50;10.07;;;4.60;99.90;;;;;;4993404;28;20144;-77
2021/01/08 07:47:23;;;;;;;17.25;10.80;;;4.60;99.90;;;;;;5011012;28;20103;-76
2021/01/08 07:50:11;;;;;;;18.20;10.00;;;4.60;99.90;;;;;;4993180;28;20034;-77
2021/01/08 07:52:41;;;;;;;18.58;11.00;;;4.70;99.90;;;;;;5009524;28;20037;-79
2021/01/08 07:55:07;;;;;;;20.85;11.13;;;4.70;99.90;;;;;;5011367;28;20026;-78
2021/01/08 07:58:03;;;;;;;17.55;10.77;;;4.70;99.90;;;;;;4995193;28;20026;-77
2021/01/08 08:00:31;;;;;;;18.50;11.80;;;4.70;99.90;;;;;;5010851;28;20414;-77
2021/01/08 08:02:58;;;;;;;18.25;11.13;;;4.70;99.90;;;;;;4993295;28;20029;-76
2021/01/08 08:05:26;;;;;;;18.70;10.57;;;4.80;99.90;;;;;;5010693;28;20493;-79
2021/01/08 08:07:56;;;;;;;19.63;11.77;;;4.80;99.90;;;;;;5012737;28;20037;-78
2021/01/08 08:10:23;;;;;;;21.40;11.82;;;4.80;99.90;;;;;;4997155;28;20030;-77
2021/01/08 08:12:50;;;;;;;18.30;11.35;;;4.80;99.90;;;;;;4996821;28;20118;-77
2021/01/08 08:15:16;;;;;;;19.48;11.25;;;4.90;99.90;;;;;;4995932;28;20029;-78
2021/01/08 08:17:45;;;;;;;30.13;12.80;;;4.80;99.90;;;;;;4995747;28;20021;-78
2021/01/08 08:20:24;;;;;;;21.75;12.95;;;4.90;99.90;;;;;;4995415;28;20453;-78
2021/01/08 08:22:55;;;;;;;23.55;13.60;;;4.90;99.90;;;;;;5013235;28;20109;-76
2021/01/08 08:25:31;;;;;;;22.35;12.27;;;4.90;99.90;;;;;;5012692;28;20041;-79
2021/01/08 08:27:59;;;;;;;20.33;11.73;;;4.90;99.90;;;;;;5012966;28;20088;-77
2021/01/08 08:30:26;;;;;;;25.27;12.43;;;4.90;99.90;;;;;;4995412;28;20033;-75
2021/01/08 08:32:53;;;;;;;22.75;12.95;;;4.80;99.90;;;;;;4995694;28;20046;-76
2021/01/08 08:35:19;;;;;;;28.08;13.45;;;4.80;99.90;;;;;;5013010;28;20022;-76
2021/01/08 08:37:50;;;;;;;24.45;12.77;;;4.80;99.90;;;;;;5012816;28;20376;-76
2021/01/08 08:40:17;;;;;;;20.63;12.13;;;4.80;99.90;;;;;;5013161;28;20030;-80
2021/01/08 08:42:47;;;;;;;21.25;12.05;;;4.80;99.90;;;;;;4995248;28;20037;-76
2021/01/08 08:45:24;;;;;;;21.23;12.18;;;4.90;99.90;;;;;;5013373;28;20021;-77
2021/01/08 08:47:55;;;;;;;23.25;14.10;;;4.90;99.90;;;;;;5012437;28;20037;-75
2021/01/08 08:50:22;;;;;;;21.27;11.98;;;4.90;99.90;;;;;;5012282;28;20025;-75
2021/01/08 08:52:48;;;;;;;20.88;11.85;;;4.90;99.90;;;;;;5012183;28;20034;-75
2021/01/08 08:55:31;;;;;;;21.40;11.05;;;4.90;99.90;;;;;;4995255;28;20042;-75
2021/01/08 08:58:13;;;;;;;20.13;11.45;;;4.90;99.90;;;;;;5012604;28;20081;-74
2021/01/08 09:00:46;;;;;;;18.45;10.77;;;4.90;99.90;;;;;;4995020;28;20037;-76
2021/01/08 09:03:16;;;;;;;18.65;10.88;;;4.90;99.90;;;;;;5012304;28;20034;-76
2021/01/08 09:05:43;;;;;;;16.98;10.77;;;4.90;99.90;;;;;;5012624;28;20057;-75
2021/01/08 09:08:13;;;;;;;26.13;15.20;;;4.90;99.90;;;;;;4994821;28;20026;-77
2021/01/08 09:10:51;;;;;;;16.88;10.10;;;4.90;99.90;;;;;;5012353;28;20026;-76
2021/01/08 09:13:53;;;;;;;19.88;11.15;;;4.80;99.90;;;;;;4988963;28;680944;-77
2021/01/08 09:16:22;;;;;;;18.98;10.85;;;4.90;99.90;;;;;;4995734;28;20034;-77
2021/01/08 09:19:03;;;;;;;23.42;10.55;;;4.80;99.90;;;;;;4995241;28;20459;-77
2021/01/08 09:21:32;;;;;;;20.33;11.60;;;4.80;99.90;;;;;;4995995;28;20037;-77
2021/01/08 09:24:05;;;;;;;18.80;10.15;;;4.80;99.90;;;;;;4995386;28;20034;-77
2021/01/08 09:26:31;;;;;;;;;;;4.80;99.90;;;;;;5017583;28;20045;-87
2021/01/08 09:28:57;;;;;;;19.17;10.13;;;4.80;99.90;;;;;;4999233;28;19913;-86
2021/01/08 09:31:43;;;;;;;18.10;10.43;;;4.70;99.90;;;;;;5000725;28;20365;-87
2021/01/08 09:34:24;;;;;;;25.85;12.20;;;4.70;99.90;;;;;;4999052;28;20025;-88
2021/01/08 09:36:52;;;;;;;18.05;11.13;;;4.70;99.90;;;;;;4998236;28;20029;-84
2021/01/08 09:39:19;;;;;;;18.73;11.52;;;4.70;99.90;;;;;;5015693;28;20029;-85
2021/01/08 09:41:53;;;;;;;22.98;11.40;;;4.70;99.90;;;;;;5016207;28;20053;-85
2021/01/08 09:44:30;;;;;;;23.52;10.82;;;4.70;99.90;;;;;;4999959;28;20030;-87
2021/01/08 09:47:01;;;;;;;19.55;11.52;;;4.70;99.90;;;;;;5014844;28;20041;-83
2021/01/08 09:49:38;;;;;;;21.30;12.30;;;4.70;99.90;;;;;;4997794;28;20025;-85
2021/01/08 09:52:05;;;;;;;18.65;10.73;;;4.70;99.90;;;;;;4997416;28;20651;-82
2021/01/08 09:54:48;;;;;;;18.17;11.73;;;4.70;99.90;;;;;;5014589;28;20101;-82
2021/01/08 09:57:35;;;;;;;20.38;11.82;;;4.70;99.90;;;;;;5014478;28;20080;-83
2021/01/08 10:00:05;;;;;;;23.85;11.90;;;4.70;99.90;;;;;;5015253;28;20022;-82
2021/01/08 10:02:41;;;;;;;20.70;11.93;;;4.70;99.90;;;;;;5014801;28;20030;-83
2021/01/08 10:05:22;;;;;;;20.33;12.15;;;4.80;99.90;;;;;;4997316;28;20404;-83
2021/01/08 10:07:49;;;;;;;19.60;11.05;;;4.80;99.90;;;;;;4997136;28;20030;-84
2021/01/08 10:10:16;;;;;;;18.65;11.23;;;4.80;99.90;;;;;;5013891;28;20111;-85
2021/01/08 10:12:45;;;;;;;21.15;12.35;;;4.80;99.90;;;;;;5014341;28;20014;-83
2021/01/08 10:15:16;;;;;;;18.83;11.93;;;4.80;99.90;;;;;;5014784;28;20077;-83
2021/01/08 10:17:48;;;;;;;26.77;12.55;;;4.80;99.90;;;;;;5014531;28;20381;-84
2021/01/08 10:20:19;;;;;;;24.17;11.65;;;4.80;99.90;;;;;;5013912;28;20030;-83
2021/01/08 10:22:49;;;;;;;19.60;11.70;;;4.70;99.90;;;;;;5013670;28;20372;-83
2021/01/08 10:25:26;;;;;;;19.38;12.23;;;4.70;99.90;;;;;;5014124;28;20026;-83
2021/01/08 10:27:52;;;;;;;19.30;11.88;;;4.70;99.90;;;;;;5034378;28;20075;-84
2021/01/08 10:30:18;;;;;;;18.25;11.50;;;4.70;99.90;;;;;;5033115;28;20483;-84
2021/01/08 10:32:48;;;;;;;18.98;11.57;;;4.60;99.90;;;;;;5033550;28;20013;-83
2021/01/08 10:35:18;;;;;;;18.13;12.20;;;4.60;99.90;;;;;;5033633;28;20026;-83
2021/01/08 10:37:46;;;;;;;18.75;11.88;;;4.60;99.90;;;;;;5035694;28;20104;-85
2021/01/08 10:40:12;;;;;;;19.23;12.80;;;4.60;99.90;;;;;;5034523;28;20028;-85
2021/01/08 10:42:38;;;;;;;21.50;12.70;;;4.60;99.90;;;;;;5017986;28;20053;-85
2021/01/08 10:45:08;;;;;;;21.83;11.82;;;4.60;99.90;;;;;;5016783;28;20071;-84
2021/01/08 10:47:34;;;;;;;16.98;11.43;;;4.50;99.90;;;;;;5033264;28;20041;-86
2021/01/08 10:50:02;;;;;;;17.67;10.63;;;4.50;99.90;;;;;;5032450;28;20030;-85
2021/01/08 10:52:28;;;;;;;17.67;11.20;;;4.50;99.90;;;;;;5032490;28;20057;-84
2021/01/08 10:54:54;;;;;;;20.80;11.93;;;4.50;99.90;;;;;;5032245;28;20067;-82
2021/01/08 10:57:20;;;;;;;23.77;13.07;;;4.50;99.90;;;;;;5031544;28;20097;-84
2021/01/08 10:59:48;;;;;;;17.33;11.70;;;4.50;99.90;;;;;;5014669;28;20112;-85
2021/01/08 11:02:14;;;;;;;25.30;13.95;;;4.50;99.90;;;;;;5032550;28;20068;-84
2021/01/08 11:04:43;;;;;;;23.45;11.88;;;4.60;99.90;;;;;;5014372;28;20057;-84
2021/01/08 11:07:09;;;;;;;21.00;12.27;;;4.60;99.90;;;;;;5033002;28;20483;-83
2021/01/08 11:09:36;;;;;;;23.65;13.00;;;4.60;99.90;;;;;;5015175;28;20049;-86
2021/01/08 11:12:02;;;;;;;18.75;11.75;;;4.60;99.90;;;;;;5016688;28;20052;-86
2021/01/08 11:14:28;;;;;;;24.10;13.02;;;4.60;99.90;;;;;;5016130;28;20095;-88
2021/01/08 11:16:54;;;;;;;21.05;12.02;;;4.60;99.90;;;;;;5018048;28;20508;-85
2021/01/08 11:19:20;;;;;;;18.58;11.75;;;4.70;99.90;;;;;;5034950;28;20514;-87
2021/01/08 11:21:46;;;;;;;20.33;12.50;;;4.70;99.90;;;;;;5016402;28;20022;-86
2021/01/08 11:24:12;;;;;;;18.55;11.57;;;4.70;99.90;;;;;;5033958;28;20029;-86
2021/01/08 11:26:38;;;;;;;20.35;11.70;;;4.70;99.90;;;;;;5035473;28;20021;-86
2021/01/08 11:29:04;;;;;;;17.08;11.48;;;4.80;99.90;;;;;;5034549;28;20518;-85
2021/01/08 11:31:34;;;;;;;20.63;12.23;;;4.80;99.90;;;;;;5034441;28;20034;-87
2021/01/08 11:34:01;;;;;;;20.73;11.60;;;4.80;99.90;;;;;;5033967;28;20083;-86
2021/01/08 11:36:27;;;;;;;21.92;12.27;;;4.80;99.90;;;;;;5033264;28;20025;-85
2021/01/08 11:38:55;;;;;;;16.90;11.07;;;4.80;99.90;;;;;;5032708;28;20409;-83
2021/01/08 11:41:21;;;;;;;19.13;11.38;;;4.80;99.90;;;;;;5014617;28;20056;-82
2021/01/08 11:43:47;;;;;;;26.23;11.73;;;4.80;99.90;;;;;;5014393;28;20125;-83
2021/01/08 11:46:19;;;;;;;20.15;13.55;;;4.80;99.90;;;;;;5032540;28;20618;-82
2021/01/08 11:48:45;;;;;;;23.52;13.68;;;4.80;99.90;;;;;;5033401;28;20029;-85
2021/01/08 11:51:14;;;;;;;22.15;12.27;;;4.80;99.90;;;;;;5033383;28;20033;-83
2021/01/08 11:53:44;;;;;;;19.27;11.73;;;4.80;99.90;;;;;;5034114;28;20021;-86
2021/01/08 11:56:13;;;;;;;22.30;11.80;;;4.80;99.90;;;;;;5033663;28;20385;-86
2021/01/08 11:58:40;;;;;;;17.30;11.23;;;4.80;99.90;;;;;;5016014;28;20025;-86
2021/01/08 12:01:07;;;;;;;19.45;11.68;;;4.80;99.90;;;;;;5015451;28;20502;-86
2021/01/08 12:03:34;;;;;;;18.83;11.60;;;4.80;99.90;;;;;;5015464;28;20134;-89
2021/01/08 12:06:00;;;;;;;20.33;11.52;;;4.80;99.90;;;;;;5017074;28;20099;-87
2021/01/08 12:08:26;;;;;;;22.90;10.93;;;4.80;99.90;;;;;;5015797;28;20468;-90
2021/01/08 12:10:52;;;;;;;15.02;10.35;;;4.80;99.90;;;;;;5033313;28;20033;-80
2021/01/08 12:13:18;;;;;;;16.92;10.88;;;4.80;99.90;;;;;;5014953;28;20072;-86
2021/01/08 12:15:48;;;;;;;17.65;11.30;;;4.80;99.90;;;;;;5015472;28;20626;-89
2021/01/08 12:18:15;;;;;;;21.48;11.07;;;4.70;99.90;;;;;;5016622;28;20112;-91
2021/01/08 12:20:41;;;;;;;19.92;12.43;;;4.70;99.90;;;;;;5015992;28;20479;-87
2021/01/08 12:23:06;;;;;;;17.90;11.30;;;4.70;99.90;;;;;;5034985;28;20037;-86
2021/01/08 12:25:37;;;;;;;23.95;13.18;;;4.70;99.90;;;;;;5035863;28;20040;-89
2021/01/08 12:28:10;;;;;;;18.35;11.75;;;4.70;99.90;;;;;;5034093;28;20093;-86
2021/01/08 12:30:37;;;;;;;24.92;14.82;;;4.70;99.90;;;;;;5032749;28;20056;-85
2021/01/08 12:33:06;;;;;;;26.35;13.80;;;4.70;99.90;;;;;;5015650;28;20418;-83
2021/01/08 12:35:32;;;;;;;19.25;11.43;;;4.70;99.90;;;;;;5022994;28;20025;-85
2021/01/08 12:37:58;;;;;;;21.00;11.32;;;4.70;99.90;;;;;;5044150;28;20026;-82
2021/01/08 12:40:24;;;;;;;18.67;11.32;;;4.70;99.90;;;;;;5034156;28;20025;-86
2021/01/08 12:42:54;;;;;;;17.45;11.25;;;4.70;99.90;;;;;;5033340;28;20026;-87
2021/01/08 12:45:23;;;;;;;23.20;12.13;;;4.70;99.90;;;;;;5032758;28;20029;-83
2021/01/08 12:47:50;;;;;;;21.45;11.38;;;4.70;99.90;;;;;;5033712;28;20057;-84
2021/01/08 12:50:18;;;;;;;20.05;11.45;;;4.70;99.90;;;;;;5019153;28;20075;-86